Time;durP1;ratioP1;P1;durP2;ratioP2;P2;SDS_P1;SDS_P2;PMS_P1;PMS_P2;Temp;Humidity;BMP_temperature;BMP_pressure;BME280_temperature;BME280_humidity;BME280_pressure;Samples;Min_cycle;Max_cycle;Signal;HPM_P1;HPM_P2
2023/01/30 00:01:20;;;;;;;43.70;19.38;;;;;;;-0.05;80.17;98870.78;5008867;28;20447;-80
2023/01/30 00:03:46;;;;;;;42.47;20.83;;;;;;;-0.16;81.01;98866.81;4991474;28;20079;-81
2023/01/30 00:06:12;;;;;;;38.08;19.95;;;;;;;0.07;79.65;98865.91;5028283;28;20460;-81
2023/01/30 00:08:37;;;;;;;28.58;14.10;;;;;;;0.03;79.56;98823.47;5008944;28;20037;-81
2023/01/30 00:11:09;;;;;;;37.42;20.77;;;;;;;-0.05;79.31;98827.03;5028068;28;20108;-80
2023/01/30 00:13:34;;;;;;;40.38;22.67;;;;;;;-0.07;80.41;98812.47;5011362;28;20029;-80
2023/01/30 00:16:00;;;;;;;39.75;21.52;;;;;;;0.03;80.00;98825.28;5007246;28;20119;-80
2023/01/30 00:18:25;;;;;;;38.75;19.88;;;;;;;-0.01;80.23;98822.22;4987217;28;20033;-80
2023/01/30 00:20:55;;;;;;;35.58;17.92;;;;;;;0.02;80.06;98803.50;4990689;28;20117;-81
2023/01/30 00:23:21;;;;;;;42.58;21.48;;;;;;;0.06;79.96;98803.94;5008891;28;20300;-81
2023/01/30 00:25:46;;;;;;;37.72;18.60;;;;;;;0.15;79.97;98835.16;4997322;28;20124;-80
2023/01/30 00:28:11;;;;;;;38.92;21.52;;;;;;;-0.14;79.72;98845.63;5024491;28;20543;-80
2023/01/30 00:30:37;;;;;;;44.05;23.70;;;;;;;0.15;79.57;98850.06;5005347;28;20125;-81
2023/01/30 00:33:02;;;;;;;40.70;21.80;;;;;;;-0.04;80.93;98833.88;5009028;28;20123;-80
2023/01/30 00:35:28;;;;;;;41.95;18.73;;;;;;;0.10;80.29;98808.63;5027649;28;20071;-80
2023/01/30 00:37:57;;;;;;;41.08;20.85;;;;;;;0.25;79.70;98816.47;4989686;28;20034;-82
2023/01/30 00:40:27;;;;;;;34.63;18.95;;;;;;;0.32;79.82;98807.69;5026156;28;20052;-81
2023/01/30 00:48:24;;;;;;;34.63;16.38;;;;;;;0.26;79.81;98784.00;5010665;28;20397;-80
2023/01/30 00:50:50;;;;;;;39.70;19.30;;;;;;;0.22;79.88;98773.03;5027985;28;20026;-81
2023/01/30 00:53:16;;;;;;;33.92;17.00;;;;;;;0.24;79.94;98771.03;5026251;28;20493;-80
2023/01/30 00:55:43;;;;;;;42.03;21.48;;;;;;;-0.18;80.23;98757.84;5010377;28;20037;-81
2023/01/30 00:58:09;;;;;;;43.70;20.60;;;;;;;0.09;80.15;98779.97;4997245;28;20124;-81
2023/01/30 01:00:35;;;;;;;39.15;21.63;;;;;;;0.02;80.26;98777.25;5032044;28;20503;-80
2023/01/30 01:03:00;;;;;;;49.55;21.75;;;;;;;-0.06;79.70;98775.53;5010889;28;20021;-80
2023/01/30 01:05:27;;;;;;;43.88;20.42;;;;;;;0.18;80.34;98792.78;5010853;28;20029;-82
2023/01/30 01:07:52;;;;;;;33.65;16.17;;;;;;;0.28;79.46;98777.56;5029784;28;20220;-81
2023/01/30 01:10:18;;;;;;;42.80;21.48;;;;;;;0.16;79.80;98781.66;4998434;28;20026;-80
2023/01/30 01:12:43;;;;;;;42.20;20.63;;;;;;;0.30;79.84;98783.44;5012035;28;20038;-80
2023/01/30 01:15:13;;;;;;;46.53;21.58;;;;;;;0.37;79.30;98767.78;5012377;28;20041;-81
2023/01/30 01:17:40;;;;;;;48.83;22.25;;;;;;;0.22;80.15;98774.88;5006432;28;20120;-80
2023/01/30 01:20:06;;;;;;;37.40;16.52;;;;;;;0.20;79.85;98766.38;5006855;28;20036;-80
2023/01/30 01:22:32;;;;;;;42.55;20.40;;;;;;;0.17;80.21;98774.59;5007079;28;20159;-80
2023/01/30 01:24:57;;;;;;;39.83;19.35;;;;;;;0.22;80.90;98772.25;5014634;28;20067;-80
2023/01/30 01:27:22;;;;;;;44.45;20.08;;;;;;;0.21;80.04;98755.69;5031840;28;20036;-80
2023/01/30 01:29:48;;;;;;;44.67;21.48;;;;;;;0.26;80.67;98742.84;4989586;28;20444;-80
2023/01/30 01:32:13;;;;;;;47.17;21.73;;;;;;;-0.10;81.24;98734.13;5006543;28;20116;-81
2023/01/30 01:34:38;;;;;;;46.45;22.45;;;;;;;0.17;80.94;98727.38;5013125;28;20029;-81
2023/01/30 01:37:04;;;;;;;48.80;23.52;;;;;;;0.16;80.74;98721.31;5029058;28;20029;-81
2023/01/30 01:41:00;;;;;;;45.60;23.50;;;;;;;0.02;80.39;98711.69;5031728;28;20025;-80
2023/01/30 01:42:15;;;;;;;44.05;20.95;;;;;;;0.23;80.05;98711.69;5032194;28;20026;-81
2023/01/30 01:45:02;;;;;;;41.20;19.05;;;;;;;0.19;80.17;98709.63;5031548;28;20040;-80
2023/01/30 01:47:29;;;;;;;43.60;18.05;;;;;;;0.27;80.33;98709.50;5033066;28;20485;-80
2023/01/30 01:49:55;;;;;;;44.45;22.92;;;;;;;0.11;80.24;98697.44;5029397;28;20040;-81
2023/01/30 01:52:21;;;;;;;49.63;25.38;;;;;;;-0.03;80.90;98695.66;5009307;28;20369;-81
2023/01/30 01:54:58;;;;;;;52.83;24.77;;;;;;;-0.05;81.03;98672.25;5032435;28;20029;-81
2023/01/30 01:57:30;;;;;;;52.42;23.67;;;;;;;0.10;81.25;98669.56;5027799;28;20034;-80
2023/01/30 02:00:22;;;;;;;44.13;22.52;;;;;;;0.07;81.55;98675.19;5010605;28;20473;-80
2023/01/30 02:02:55;;;;;;;51.42;24.35;;;;;;;-0.42;82.01;98635.72;5022122;28;20037;-80
2023/01/30 02:05:24;;;;;;;52.75;25.02;;;;;;;0.10;81.47;98651.22;5020737;28;20033;-80
2023/01/30 02:08:03;;;;;;;44.55;23.58;;;;;;;0.17;80.44;98638.16;5008665;28;20041;-80
2023/01/30 02:10:51;;;;;;;48.53;24.58;;;;;;;-0.10;81.79;98653.63;5013266;28;20029;-80
2023/01/30 02:13:17;;;;;;;45.88;21.10;;;;;;;0.15;80.70;98640.16;5030481;28;20040;-80
2023/01/30 02:15:42;;;;;;;46.80;21.55;;;;;;;0.12;80.80;98616.91;5012712;28;20037;-80
2023/01/30 02:18:08;;;;;;;47.65;22.38;;;;;;;0.09;80.77;98619.94;5028588;28;20370;-82
2023/01/30 02:20:49;;;;;;;46.60;23.95;;;;;;;0.17;81.64;98617.16;5013977;28;20059;-81
2023/01/30 02:23:39;;;;;;;47.75;22.33;;;;;;;0.14;81.46;98610.47;5029048;28;20475;-80
2023/01/30 02:26:10;;;;;;;41.95;20.88;;;;;;;0.09;81.48;98604.97;5030624;28;20030;-80
2023/01/30 02:29:00;;;;;;;31.15;15.52;;;;;;;0.09;81.52;98604.97;5012836;28;20060;-80
2023/01/30 02:31:46;;;;;;;37.50;17.55;;;;;;;0.17;82.13;98611.91;5029257;28;20048;-81
2023/01/30 02:34:32;;;;;;;38.28;16.75;;;;;;;0.18;81.80;98600.41;5030010;28;20035;-81
2023/01/30 02:37:09;;;;;;;31.50;16.58;;;;;;;0.21;81.70;98603.47;5030089;28;20078;-80
2023/01/30 02:40:01;;;;;;;46.78;20.05;;;;;;;0.25;81.84;98588.97;5031425;28;20093;-81
2023/01/30 02:43:01;;;;;;;39.30;18.85;;;;;;;0.24;82.41;98597.84;5013632;28;21215;-81
2023/01/30 02:45:39;;;;;;;41.40;19.27;;;;;;;0.31;82.01;98595.28;5010230;28;20040;-81
2023/01/30 02:48:09;;;;;;;39.67;18.35;;;;;;;0.29;82.43;98587.59;5027846;28;20038;-80
2023/01/30 02:50:44;;;;;;;50.45;22.83;;;;;;;0.23;82.34;98582.28;5025996;28;20021;-80
2023/01/30 02:53:10;;;;;;;43.92;19.90;;;;;;;0.21;82.07;98566.75;5012327;28;20101;-80
2023/01/30 02:55:40;;;;;;;39.42;17.48;;;;;;;0.22;82.33;98562.31;4992788;28;20037;-80
2023/01/30 02:58:06;;;;;;;48.80;24.33;;;;;;;0.27;82.56;98567.78;5032486;28;20032;-82
2023/01/30 03:01:03;;;;;;;46.30;20.77;;;;;;;0.33;82.51;98557.34;5014687;28;20038;-81
2023/01/30 03:03:47;;;;;;;46.67;23.13;;;;;;;0.25;83.18;98557.50;5016008;28;20056;-80
2023/01/30 03:06:33;;;;;;;48.70;21.55;;;;;;;0.23;83.37;98554.25;5028463;28;20025;-80
2023/01/30 03:09:29;;;;;;;39.47;17.83;;;;;;;0.15;82.37;98533.41;5027013;28;20374;-80
2023/01/30 03:12:15;;;;;;;34.30;15.50;;;;;;;0.06;83.52;98528.47;5010634;28;20048;-81
2023/01/30 03:14:51;;;;;;;32.65;15.05;;;;;;;0.21;83.26;98516.88;5006780;28;20033;-80
2023/01/30 03:17:17;;;;;;;;;;;;;;;0.20;82.91;98512.63;5008902;28;20033;-82
2023/01/30 03:19:43;;;;;;;38.47;15.27;;;;;;;0.21;83.36;98516.06;5009917;28;19917;-80
2023/01/30 03:22:08;;;;;;;41.47;18.77;;;;;;;0.13;83.32;98497.84;5029188;28;20046;-81
2023/01/30 03:24:34;;;;;;;33.95;15.23;;;;;;;0.09;83.44;98489.53;4994973;28;20033;-81
2023/01/30 03:27:11;;;;;;;40.85;20.48;;;;;;;0.11;84.33;98486.75;4996751;28;20030;-80
2023/01/30 03:29:39;;;;;;;41.88;20.00;;;;;;;0.19;83.76;98487.41;5024276;28;20030;-81
2023/01/30 03:32:04;;;;;;;44.47;19.65;;;;;;;0.05;84.29;98493.53;5025795;28;20057;-80
2023/01/30 03:34:30;;;;;;;33.42;17.30;;;;;;;0.36;83.56;98503.66;5011058;28;20056;-80
2023/01/30 03:36:56;;;;;;;35.97;16.52;;;;;;;0.19;84.23;98491.84;5007941;28;20033;-82
2023/01/30 03:39:25;;;;;;;40.60;19.98;;;;;;;0.18;84.46;98484.97;4990896;28;20030;-80
2023/01/30 03:41:52;;;;;;;39.58;17.90;;;;;;;0.18;84.86;98484.97;5021527;28;20508;-81
2023/01/30 03:44:18;;;;;;;38.05;18.80;;;;;;;0.16;84.88;98479.91;5028306;28;20030;-82
2023/01/30 03:46:43;;;;;;;37.80;18.50;;;;;;;0.22;84.47;98473.09;5012043;28;20025;-81
2023/01/30 03:49:08;;;;;;;42.50;19.75;;;;;;;0.22;85.11;98486.22;5012038;28;20087;-82
2023/01/30 03:51:34;;;;;;;41.05;18.27;;;;;;;0.34;84.25;98482.03;5027170;28;20177;-81
2023/01/30 03:53:59;;;;;;;39.63;18.73;;;;;;;0.21;84.51;98468.84;5013109;28;20036;-81
2023/01/30 03:56:25;;;;;;;40.67;19.92;;;;;;;0.28;84.71;98475.78;5012342;28;20040;-80
2023/01/30 03:58:50;;;;;;;46.42;23.20;;;;;;;0.19;84.78;98468.22;5030793;28;20025;-80
2023/01/30 04:01:16;;;;;;;45.25;20.65;;;;;;;0.34;84.85;98482.03;5031434;28;20029;-80
2023/01/30 04:03:41;;;;;;;43.50;19.08;;;;;;;0.29;84.47;98458.19;5022895;28;20035;-81
2023/01/30 04:06:06;;;;;;;29.67;15.07;;;;;;;0.27;85.14;98457.56;5032390;28;20056;-81
2023/01/30 04:08:32;;;;;;;49.88;22.98;;;;;;;0.23;85.01;98451.91;5014229;28;20124;-80
2023/01/30 04:10:57;;;;;;;48.55;22.77;;;;;;;0.28;85.17;98428.53;5009884;28;20056;-80
2023/01/30 04:13:23;;;;;;;36.08;18.15;;;;;;;0.26;84.86;98422.66;5012959;28;20113;-80
2023/01/30 04:15:48;;;;;;;43.42;21.83;;;;;;;0.33;84.84;98420.88;5011582;28;20029;-81
2023/01/30 04:18:13;;;;;;;46.50;21.65;;;;;;;0.32;85.63;98402.69;5027749;28;20496;-81
2023/01/30 04:20:39;;;;;;;50.60;21.42;;;;;;;0.35;84.75;98394.44;4999303;28;20024;-81
2023/01/30 04:23:04;;;;;;;49.60;22.30;;;;;;;0.31;84.84;98382.69;5012262;28;20044;-82
2023/01/30 04:25:29;;;;;;;38.95;18.48;;;;;;;0.32;85.55;98394.81;5030014;28;20117;-81
2023/01/30 04:27:55;;;;;;;35.88;19.05;;;;;;;0.28;85.60;98393.59;5028930;28;20033;-80
2023/01/30 04:30:21;;;;;;;46.20;22.83;;;;;;;0.32;85.29;98379.91;5029239;28;20029;-80
2023/01/30 04:32:46;;;;;;;37.03;18.98;;;;;;;0.32;85.82;98393.00;5011013;28;20090;-81
2023/01/30 04:35:12;;;;;;;42.72;21.25;;;;;;;0.48;85.07;98395.28;5013347;28;20034;-81
2023/01/30 04:37:37;;;;;;;34.08;16.35;;;;;;;0.35;86.21;98399.69;5009781;28;20032;-81
2023/01/30 04:40:03;;;;;;;36.30;18.05;;;;;;;0.31;86.12;98411.56;5028447;28;20028;-80
2023/01/30 04:42:29;;;;;;;41.00;18.67;;;;;;;0.39;86.33;98400.91;5028985;28;20052;-81
2023/01/30 04:44:54;;;;;;;32.53;16.27;;;;;;;0.42;85.63;98400.50;4995958;28;20490;-81
2023/01/30 04:47:19;;;;;;;36.35;18.67;;;;;;;0.45;85.73;98397.50;4996780;28;20489;-81
2023/01/30 04:49:45;;;;;;;37.25;18.05;;;;;;;0.62;85.40;98402.25;5010880;28;20430;-82
2023/01/30 04:52:10;;;;;;;33.25;14.38;;;;;;;0.49;85.32;98394.31;5029968;28;20032;-82
2023/01/30 04:54:35;;;;;;;37.72;17.08;;;;;;;0.47;85.85;98398.13;5014360;28;20064;-82
2023/01/30 04:57:01;;;;;;;28.95;16.50;;;;;;;0.57;85.50;98415.13;4991679;28;21570;-82
2023/01/30 04:59:26;;;;;;;33.92;16.33;;;;;;;0.52;85.73;98414.09;5027943;28;20033;-82
2023/01/30 05:01:52;;;;;;;22.83;11.60;;;;;;;0.57;85.80;98412.50;5013584;28;20033;-81
2023/01/30 05:04:17;;;;;;;28.73;15.40;;;;;;;0.50;86.00;98403.00;5016979;28;20096;-82
2023/01/30 05:06:42;;;;;;;29.85;15.93;;;;;;;0.50;86.19;98395.91;4994736;28;20034;-81
2023/01/30 05:09:08;;;;;;;31.20;15.65;;;;;;;0.57;85.83;98378.38;5012938;28;20029;-82
2023/01/30 05:11:33;;;;;;;29.88;14.63;;;;;;;0.55;86.05;98382.19;5006358;28;20535;-81
2023/01/30 05:13:59;;;;;;;26.63;13.88;;;;;;;0.38;86.54;98384.34;5031176;28;20075;-81
2023/01/30 05:16:25;;;;;;;26.80;14.35;;;;;;;0.50;86.76;98392.50;5032355;28;20030;-81
2023/01/30 05:18:51;;;;;;;29.92;14.23;;;;;;;0.34;87.39;98377.88;5014117;28;20028;-81
2023/01/30 05:21:20;;;;;;;26.35;12.40;;;;;;;0.37;87.06;98384.56;5010631;28;20481;-81
2023/01/30 05:23:46;;;;;;;26.98;13.18;;;;;;;0.49;86.97;98375.13;5007447;28;20473;-81
2023/01/30 05:26:13;;;;;;;26.63;13.13;;;;;;;0.44;86.70;98364.38;5006261;28;20041;-81
2023/01/30 05:28:38;;;;;;;29.35;13.80;;;;;;;0.39;87.05;98369.44;5012552;28;20097;-81
2023/01/30 05:31:11;;;;;;;24.50;12.63;;;;;;;0.41;87.07;98377.91;4978511;28;20488;-82
2023/01/30 05:33:37;;;;;;;23.88;12.48;;;;;;;0.53;86.72;98371.91;5011080;28;20034;-82
2023/01/30 05:36:03;;;;;;;24.55;12.70;;;;;;;0.50;86.65;98361.00;5011462;28;20049;-82
2023/01/30 05:38:28;;;;;;;29.02;12.30;;;;;;;0.47;86.57;98348.25;5026099;28;20404;-83
2023/01/30 05:41:02;;;;;;;24.60;13.00;;;;;;;0.45;87.17;98352.88;5013305;28;20032;-83
2023/01/30 05:43:28;;;;;;;21.02;11.13;;;;;;;0.31;87.34;98336.28;5029366;28;20037;-82
2023/01/30 05:45:55;;;;;;;22.77;9.60;;;;;;;0.44;86.98;98354.69;5028565;28;20048;-81
2023/01/30 05:48:22;;;;;;;19.45;9.70;;;;;;;0.12;87.92;98304.69;5032677;28;20481;-82
2023/01/30 05:50:49;;;;;;;13.75;7.82;;;;;;;0.36;87.49;98336.50;5030570;28;20025;-81
2023/01/30 05:53:15;;;;;;;14.25;8.93;;;;;;;0.53;86.90;98350.91;5031476;28;20120;-82
2023/01/30 05:55:42;;;;;;;15.85;8.70;;;;;;;0.51;87.48;98354.72;5014713;28;20115;-82
2023/01/30 05:58:08;;;;;;;17.40;10.75;;;;;;;0.65;87.23;98345.91;5031246;28;20386;-82
2023/01/30 06:00:33;;;;;;;17.30;8.60;;;;;;;0.44;87.56;98349.44;5030034;28;20033;-81
2023/01/30 06:02:58;;;;;;;12.68;8.20;;;;;;;0.49;87.17;98351.47;5015686;28;20026;-81
2023/01/30 06:05:24;;;;;;;17.83;8.43;;;;;;;0.46;88.45;98338.78;5012195;28;20499;-82
2023/01/30 06:07:49;;;;;;;18.27;9.57;;;;;;;0.38;88.00;98334.50;5010957;28;20029;-81
2023/01/30 06:10:15;;;;;;;17.88;8.57;;;;;;;0.53;88.20;98339.59;5008294;28;20029;-81
2023/01/30 06:12:40;;;;;;;15.18;7.90;;;;;;;0.57;87.63;98339.00;5009991;28;20849;-81
2023/01/30 06:15:06;;;;;;;13.68;7.57;;;;;;;0.56;87.84;98333.94;5025061;28;20037;-82
2023/01/30 06:17:32;;;;;;;14.82;8.38;;;;;;;0.55;88.08;98337.56;5008664;28;21088;-82
2023/01/30 06:19:57;;;;;;;12.98;6.90;;;;;;;0.69;87.44;98341.88;5008134;28;20037;-82
2023/01/30 06:22:22;;;;;;;10.98;6.13;;;;;;;0.67;87.40;98346.50;5011582;28;20036;-82
2023/01/30 06:24:48;;;;;;;11.82;6.70;;;;;;;0.63;87.81;98332.16;5016112;28;20039;-83
2023/01/30 06:27:13;;;;;;;11.75;6.85;;;;;;;0.59;87.71;98333.56;4983012;28;20033;-82
2023/01/30 06:29:39;;;;;;;13.10;6.80;;;;;;;0.62;88.06;98323.47;5029182;28;20022;-82
2023/01/30 06:32:04;;;;;;;12.60;7.07;;;;;;;0.73;87.90;98325.50;5009786;28;20029;-82
2023/01/30 06:34:29;;;;;;;8.00;5.85;;;;;;;0.64;88.10;98324.06;5010311;28;20095;-81
2023/01/30 06:36:55;;;;;;;13.30;5.82;;;;;;;0.70;88.03;98332.97;5013343;28;20070;-81
2023/01/30 06:39:20;;;;;;;11.35;7.10;;;;;;;0.64;87.88;98331.94;5002505;28;20029;-82
2023/01/30 06:41:46;;;;;;;10.95;6.38;;;;;;;0.74;88.13;98326.31;4996398;28;20025;-81
2023/01/30 06:44:11;;;;;;;7.38;4.20;;;;;;;0.49;89.87;98333.94;4997431;28;20573;-81
2023/01/30 06:46:36;;;;;;;11.63;4.82;;;;;;;0.58;90.02;98343.25;5027795;28;20053;-81
2023/01/30 06:49:02;;;;;;;11.13;5.45;;;;;;;0.47;89.95;98317.56;5032563;28;20405;-81
2023/01/30 06:51:27;;;;;;;10.98;6.70;;;;;;;0.55;89.71;98321.81;5016084;28;20091;-82
2023/01/30 06:53:53;;;;;;;8.13;4.85;;;;;;;0.59;88.89;98329.09;4997721;28;20029;-82
2023/01/30 06:56:18;;;;;;;6.95;5.03;;;;;;;0.66;88.65;98332.56;5000719;28;20032;-81
2023/01/30 06:58:44;;;;;;;9.38;6.43;;;;;;;0.66;89.15;98323.88;5016805;28;20492;-81
2023/01/30 07:01:10;;;;;;;13.82;5.88;;;;;;;0.71;88.83;98329.34;5016450;28;20090;-81
2023/01/30 07:03:35;;;;;;;7.68;5.18;;;;;;;0.74;88.78;98327.13;5032647;28;20041;-81
2023/01/30 07:06:00;;;;;;;10.32;6.35;;;;;;;0.71;89.02;98342.47;5012048;28;20026;-81
2023/01/30 07:08:26;;;;;;;10.60;5.57;;;;;;;0.80;88.52;98345.72;5014708;28;20037;-81
2023/01/30 07:10:51;;;;;;;9.65;6.45;;;;;;;0.72;88.70;98342.25;5045721;28;20139;-81
2023/01/30 07:13:16;;;;;;;10.07;6.63;;;;;;;0.69;88.56;98329.53;5020991;28;20478;-81
2023/01/30 07:15:43;;;;;;;9.73;6.40;;;;;;;0.80;88.34;98333.41;5010755;28;20160;-81
2023/01/30 07:18:08;;;;;;;11.27;6.78;;;;;;;0.75;88.49;98320.88;4996787;28;20492;-81
2023/01/30 07:20:34;;;;;;;9.80;5.63;;;;;;;0.76;89.36;98343.47;5029973;28;20112;-84
2023/01/30 07:23:00;;;;;;;8.77;5.82;;;;;;;0.87;88.45;98336.03;5012701;28;20389;-81
2023/01/30 07:25:27;;;;;;;11.35;6.70;;;;;;;0.70;89.39;98333.78;4993986;28;20041;-81
2023/01/30 07:27:58;;;;;;;10.50;7.07;;;;;;;0.93;88.26;98333.44;5027601;28;20033;-82
2023/01/30 07:30:24;;;;;;;9.25;5.70;;;;;;;0.93;88.19;98327.38;5031662;28;20075;-81
2023/01/30 07:32:54;;;;;;;10.90;6.20;;;;;;;0.97;87.94;98328.56;5011710;28;20037;-82
2023/01/30 07:35:21;;;;;;;9.13;5.93;;;;;;;0.96;88.03;98325.13;4993578;28;20044;-82
2023/01/30 07:37:47;;;;;;;10.52;6.82;;;;;;;1.02;88.14;98339.31;5011313;28;20480;-82
2023/01/30 07:40:13;;;;;;;7.18;4.70;;;;;;;1.04;88.49;98339.91;5011674;28;20097;-81
2023/01/30 07:42:39;;;;;;;8.65;6.03;;;;;;;1.06;88.10;98343.97;5010267;28;20021;-81
2023/01/30 07:45:05;;;;;;;8.90;5.53;;;;;;;0.87;89.54;98333.41;4995808;28;20048;-81
2023/01/30 07:47:30;;;;;;;9.88;5.30;;;;;;;0.99;88.21;98327.38;4993495;28;20485;-81
2023/01/30 07:49:56;;;;;;;7.97;4.93;;;;;;;0.96;88.95;98338.25;5008933;28;20029;-81
2023/01/30 07:52:21;;;;;;;5.80;4.50;;;;;;;0.99;88.36;98344.94;5030860;28;20107;-81
2023/01/30 07:54:46;;;;;;;7.97;4.90;;;;;;;0.91;89.05;98343.34;4996693;28;20617;-81
2023/01/30 07:57:12;;;;;;;5.90;4.30;;;;;;;0.95;88.08;98344.53;5012567;28;20025;-82
2023/01/30 07:59:37;;;;;;;5.75;4.70;;;;;;;1.00;88.50;98360.53;4986813;28;20063;-81
2023/01/30 08:02:02;;;;;;;6.60;4.20;;;;;;;0.92;88.74;98350.19;4997778;28;20478;-82
2023/01/30 08:04:28;;;;;;;8.25;4.50;;;;;;;0.83;89.49;98327.75;5015136;28;20136;-82
2023/01/30 08:06:53;;;;;;;7.20;4.07;;;;;;;0.89;88.81;98336.66;5017525;28;20067;-81
2023/01/30 08:09:19;;;;;;;4.35;3.03;;;;;;;0.85;88.53;98353.81;4996416;28;20060;-82
2023/01/30 08:11:44;;;;;;;3.42;2.72;;;;;;;0.91;88.01;98345.97;5011919;28;20064;-82
2023/01/30 08:14:10;;;;;;;4.28;3.25;;;;;;;0.82;88.27;98341.06;5027564;28;20033;-82
2023/01/30 08:16:35;;;;;;;6.72;3.88;;;;;;;0.88;88.81;98332.41;5029573;28;20037;-81
2023/01/30 08:19:03;;;;;;;5.78;3.95;;;;;;;0.84;89.08;98326.75;5014105;28;20039;-82
2023/01/30 08:21:28;;;;;;;4.82;3.03;;;;;;;0.84;89.53;98344.31;5013413;28;20471;-83
2023/01/30 08:23:53;;;;;;;5.10;2.78;;;;;;;0.95;88.64;98336.66;5017634;28;20048;-82
2023/01/30 08:26:19;;;;;;;3.83;3.45;;;;;;;0.91;89.14;98332.81;4997827;28;20037;-81
2023/01/30 08:28:44;;;;;;;3.00;2.70;;;;;;;0.99;89.14;98342.31;4994941;28;20567;-82
2023/01/30 08:31:12;;;;;;;3.50;2.47;;;;;;;0.98;89.08;98352.03;5027560;28;20060;-82
2023/01/30 08:33:37;;;;;;;3.15;2.85;;;;;;;1.04;88.94;98337.28;5012696;28;20030;-82
2023/01/30 08:36:03;;;;;;;3.72;2.25;;;;;;;1.06;88.74;98330.00;5029975;28;20021;-82
2023/01/30 08:38:29;;;;;;;5.57;2.83;;;;;;;1.03;89.23;98325.13;5013917;28;20040;-82
2023/01/30 08:40:56;;;;;;;2.33;2.00;;;;;;;1.13;88.96;98344.78;4999514;28;20061;-83
2023/01/30 08:43:22;;;;;;;6.60;3.90;;;;;;;1.14;88.91;98342.94;5011525;28;20463;-82
2023/01/30 08:45:47;;;;;;;3.05;2.03;;;;;;;1.16;88.82;98328.59;5002931;28;20094;-82
2023/01/30 08:48:13;;;;;;;3.38;2.55;;;;;;;1.13;89.17;98339.53;5026194;28;20071;-81
2023/01/30 08:50:38;;;;;;;6.05;2.83;;;;;;;1.09;89.58;98333.03;5015720;28;20075;-82
2023/01/30 08:53:05;;;;;;;2.55;2.35;;;;;;;1.16;89.41;98325.16;5006603;28;20037;-81
2023/01/30 08:55:30;;;;;;;4.03;3.00;;;;;;;1.07;90.02;98319.28;5023583;28;20029;-82
2023/01/30 08:57:56;;;;;;;4.82;2.92;;;;;;;1.26;89.48;98334.28;5025689;28;20048;-81
2023/01/30 09:00:21;;;;;;;4.75;2.67;;;;;;;1.29;90.00;98340.97;5007942;28;20034;-81
2023/01/30 09:02:47;;;;;;;3.22;1.75;;;;;;;1.30;90.14;98347.81;5007228;28;20340;-82
2023/01/30 09:05:13;;;;;;;3.20;2.88;;;;;;;1.25;90.64;98345.78;4999991;28;20065;-80
2023/01/30 09:07:39;;;;;;;4.82;3.17;;;;;;;1.24;91.15;98346.81;5011694;28;20060;-80
2023/01/30 09:10:04;;;;;;;9.68;3.08;;;;;;;1.37;90.70;98351.25;5026765;28;20065;-80
2023/01/30 09:12:30;;;;;;;5.97;2.65;;;;;;;1.42;90.85;98359.38;5010201;28;20185;-80
2023/01/30 09:14:57;;;;;;;7.25;2.03;;;;;;;1.38;90.91;98358.94;5010991;28;20477;-80
2023/01/30 09:17:23;;;;;;;5.30;2.40;;;;;;;1.41;91.82;98353.28;5015201;28;20087;-81
2023/01/30 09:19:48;;;;;;;3.05;1.92;;;;;;;1.41;92.45;98361.19;4997602;28;20119;-81
2023/01/30 09:22:15;;;;;;;8.88;2.50;;;;;;;1.47;92.16;98357.72;5007466;28;20032;-81
2023/01/30 09:24:41;;;;;;;4.50;2.63;;;;;;;1.43;92.20;98358.34;5011691;28;20104;-81
2023/01/30 09:27:06;;;;;;;10.63;3.65;;;;;;;1.52;91.81;98368.47;5013331;28;20037;-81
2023/01/30 09:29:31;;;;;;;7.00;2.70;;;;;;;1.53;92.11;98367.44;5023134;28;20124;-81
2023/01/30 09:31:57;;;;;;;12.77;5.65;;;;;;;1.47;92.83;98354.28;5015178;28;20029;-81
2023/01/30 09:34:27;;;;;;;4.65;2.58;;;;;;;1.57;92.71;98354.72;5016066;28;20167;-82
2023/01/30 09:37:00;;;;;;;10.38;3.85;;;;;;;1.48;92.72;98338.31;4990415;28;20033;-80
2023/01/30 09:39:26;;;;;;;13.55;3.67;;;;;;;1.64;92.83;98349.44;5007582;28;20064;-82
2023/01/30 09:42:04;;;;;;;8.27;4.05;;;;;;;1.71;93.18;98344.97;5009251;28;20373;-81
2023/01/30 09:45:07;;;;;;;11.65;4.28;;;;;;;1.78;93.36;98351.03;5011291;28;20557;-80
2023/01/30 09:47:53;;;;;;;14.13;5.05;;;;;;;1.87;92.32;98348.00;5028864;28;20117;-81
2023/01/30 09:50:36;;;;;;;12.95;4.10;;;;;;;1.91;92.77;98362.34;5029311;28;20033;-80
2023/01/30 09:54:06;;;;;;;9.75;3.88;;;;;;;1.95;93.15;98354.84;5030558;28;20044;-82
2023/01/30 09:56:31;;;;;;;12.57;4.47;;;;;;;1.95;92.38;98363.56;4988677;28;20088;-80
2023/01/30 09:59:00;;;;;;;13.02;3.65;;;;;;;2.05;92.30;98352.63;4992670;28;20596;-81
2023/01/30 10:01:54;;;;;;;10.75;3.58;;;;;;;2.11;93.21;98372.84;5012921;28;20195;-80
2023/01/30 10:04:33;;;;;;;10.02;3.83;;;;;;;2.06;92.76;98364.75;5023629;28;20029;-79
2023/01/30 10:07:33;;;;;;;14.65;4.88;;;;;;;2.23;91.24;98384.34;5024598;28;20048;-80
2023/01/30 10:10:09;;;;;;;8.05;2.75;;;;;;;2.19;91.79;98383.13;5014938;28;20119;-81
2023/01/30 10:12:44;;;;;;;7.28;2.22;;;;;;;2.17;92.01;98378.09;5027248;28;20393;-80
2023/01/30 10:15:40;;;;;;;16.30;3.70;;;;;;;2.15;92.25;98374.84;5028265;28;20044;-80
2023/01/30 10:18:27;;;;;;;11.80;2.80;;;;;;;2.19;91.42;98378.69;5027730;28;20036;-81
2023/01/30 10:21:22;;;;;;;8.68;2.80;;;;;;;2.18;92.10;98382.31;5012247;28;20069;-79
2023/01/30 10:23:56;;;;;;;14.73;2.63;;;;;;;2.21;92.08;98375.84;5027565;28;20441;-81
2023/01/30 10:26:26;;;;;;;14.25;3.45;;;;;;;2.19;92.01;98372.59;5009015;28;20045;-80
2023/01/30 10:29:11;;;;;;;9.93;2.92;;;;;;;2.22;91.52;98372.19;4996976;28;20404;-79
2023/01/30 10:31:48;;;;;;;7.80;2.50;;;;;;;2.31;91.22;98373.59;5020708;28;20485;-80
2023/01/30 10:34:33;;;;;;;18.13;3.10;;;;;;;2.39;91.32;98362.00;5005967;28;20060;-80
2023/01/30 10:37:10;;;;;;;21.38;3.65;;;;;;;2.34;91.75;98356.56;5005491;28;20515;-81
2023/01/30 10:39:49;;;;;;;14.05;2.35;;;;;;;2.42;91.75;98354.53;5006237;28;20048;-81
2023/01/30 10:42:21;;;;;;;9.02;2.28;;;;;;;2.50;91.29;98364.81;5004371;28;20591;-81
2023/01/30 10:44:47;;;;;;;8.15;3.08;;;;;;;2.46;90.63;98339.09;5005371;28;20030;-81
2023/01/30 10:47:15;;;;;;;18.52;3.28;;;;;;;2.52;91.01;98357.50;4994946;28;20044;-81
2023/01/30 10:49:44;;;;;;;10.55;2.30;;;;;;;2.48;91.33;98352.88;5030637;28;20044;-81
2023/01/30 10:52:18;;;;;;;11.75;3.38;;;;;;;2.42;92.08;98378.22;5025513;28;20034;-81
2023/01/30 10:54:53;;;;;;;13.65;2.83;;;;;;;2.40;91.93;98356.56;5022524;28;20037;-81
2023/01/30 10:57:31;;;;;;;17.53;5.67;;;;;;;2.44;91.71;98368.28;5020645;28;20639;-81
2023/01/30 11:00:04;;;;;;;9.82;3.03;;;;;;;2.54;91.12;98358.09;5010723;28;20037;-80
2023/01/30 11:03:01;;;;;;;15.50;3.78;;;;;;;2.60;90.96;98351.22;5011935;28;20073;-80
2023/01/30 11:05:38;;;;;;;10.43;2.30;;;;;;;2.62;91.15;98349.94;5011370;28;20420;-80
2023/01/30 11:08:14;;;;;;;8.73;2.42;;;;;;;2.73;90.93;98351.16;5021235;28;20044;-79
2023/01/30 11:10:39;;;;;;;16.80;4.30;;;;;;;2.85;90.62;98357.34;5026005;28;20025;-80
2023/01/30 11:13:15;;;;;;;12.57;3.22;;;;;;;2.82;90.55;98363.84;5006398;28;20041;-80
2023/01/30 11:15:41;;;;;;;;;;;;;;;2.82;89.92;98349.84;5021923;28;20393;-80
2023/01/30 11:18:07;;;;;;;17.45;5.50;;;;;;;2.69;89.71;98357.81;5004828;28;19939;-80
2023/01/30 11:20:42;;;;;;;4.57;2.05;;;;;;;2.65;90.23;98354.81;5024534;28;20068;-79
2023/01/30 11:23:22;;;;;;;10.07;2.33;;;;;;;2.73;90.40;98357.19;5006594;28;20026;-80
2023/01/30 11:25:50;;;;;;;17.13;4.03;;;;;;;2.78;90.50;98348.66;5010167;28;20063;-80
2023/01/30 11:28:18;;;;;;;12.77;2.30;;;;;;;2.98;90.31;98373.09;5022613;28;20034;-80
2023/01/30 11:30:48;;;;;;;20.13;4.10;;;;;;;3.04;89.50;98359.88;5008184;28;20033;-80
2023/01/30 11:33:16;;;;;;;8.20;2.72;;;;;;;3.14;88.87;98346.22;4993342;28;20033;-80
2023/01/30 11:36:05;;;;;;;9.35;3.03;;;;;;;3.23;88.82;98354.69;5024075;28;20778;-79
2023/01/30 11:38:37;;;;;;;9.85;1.83;;;;;;;3.19;89.03;98321.88;5008992;28;20120;-79
2023/01/30 11:41:08;;;;;;;10.57;2.90;;;;;;;3.34;88.30;98322.34;5030148;28;20052;-80
2023/01/30 11:43:38;;;;;;;9.65;3.50;;;;;;;3.23;87.96;98299.31;5003312;28;20045;-80
2023/01/30 11:46:06;;;;;;;10.93;2.00;;;;;;;3.13;87.81;98302.41;4986505;28;20068;-80
2023/01/30 11:48:38;;;;;;;7.15;1.48;;;;;;;3.14;87.84;98303.22;5005160;28;20060;-79